createdAt,value
2023-05-08T00:00:42.205Z,3.1
2023-05-08T00:15:43.990Z,1.6
2023-05-08T00:30:55.190Z,1.8
2023-05-08T00:45:46.011Z,3.1
2023-05-08T01:00:46.229Z,0.7
2023-05-08T01:01:27.665Z,1.6
2023-05-08T01:15:46.006Z,1.1
2023-05-08T01:30:46.716Z,1
2023-05-08T01:45:46.879Z,1.1
2023-05-08T02:00:48.829Z,1.4
2023-05-08T02:15:48.491Z,1
2023-05-08T02:30:49.305Z,1.3
2023-05-08T02:45:51.186Z,0.9
2023-05-08T03:00:50.529Z,1
2023-05-08T03:15:51.242Z,2.2
2023-05-08T03:30:52.548Z,2.5
2023-05-08T03:46:04.419Z,2.7
2023-05-08T04:00:51.676Z,1.6
2023-05-08T04:15:49.856Z,1.1
2023-05-08T04:30:45.401Z,1.9
2023-05-08T05:45:50.696Z,2.3
2023-05-08T06:15:51.976Z,1.9
2023-05-08T06:30:51.610Z,2.1
2023-05-08T06:45:54.072Z,3.8
2023-05-08T07:00:53.340Z,2.4
2023-05-08T07:15:55.675Z,1.5
2023-05-08T07:30:54.827Z,1.4
2023-05-08T07:45:55.446Z,2.7
2023-05-08T08:00:56.955Z,2.1
2023-05-08T08:15:56.360Z,4.5
2023-05-08T08:30:57.160Z,0.5
2023-05-08T08:45:59.654Z,0.4
2023-05-08T09:00:58.412Z,2.1
2023-05-08T09:16:00.155Z,1.7
2023-05-08T09:31:00.180Z,0.6
2023-05-08T09:46:00.559Z,0.4
2023-05-08T10:01:02.819Z,3.9
2023-05-08T10:16:02.540Z,0.8
2023-05-08T10:31:03.910Z,0.3
2023-05-08T10:46:06.276Z,0.5
2023-05-08T11:01:07.997Z,0
2023-05-08T11:16:04.873Z,0.2
2023-05-08T11:31:06.308Z,0.3
2023-05-08T11:46:06.560Z,0.3
2023-05-08T12:01:07.557Z,1.9
2023-05-08T12:16:07.933Z,0.3
2023-05-08T12:31:08.190Z,1
2023-05-08T12:46:08.459Z,2.2
2023-05-08T13:01:09.165Z,6.9
2023-05-08T13:16:09.727Z,2.4
2023-05-08T13:31:10.450Z,1
2023-05-08T13:46:11.625Z,1.8
2023-05-08T14:01:27.077Z,3.3
2023-05-08T14:16:13.259Z,2.9
2023-05-08T14:31:12.686Z,4.3
2023-05-08T14:46:13.615Z,3.5
2023-05-08T15:01:13.813Z,4.9
2023-05-08T15:16:16.834Z,6.6
2023-05-08T15:31:15.397Z,9
2023-05-08T15:46:16.309Z,11
